createdAt,value
2019-01-13T00:00:52.642Z,997.89
2019-01-13T00:01:52.629Z,997.88
2019-01-13T00:02:52.620Z,997.84
2019-01-13T00:03:52.611Z,997.83
2019-01-13T00:04:52.605Z,997.83
2019-01-13T00:05:52.585Z,997.85
2019-01-13T00:06:52.573Z,997.84
2019-01-13T00:07:52.561Z,997.77
2019-01-13T00:09:52.540Z,997.83
2019-01-13T00:10:52.528Z,997.83
2019-01-13T00:11:52.516Z,997.79
2019-01-13T00:12:52.504Z,997.80
2019-01-13T00:14:52.484Z,997.85
2019-01-13T00:15:52.478Z,997.83
2019-01-13T00:16:52.464Z,997.77
2019-01-13T00:17:52.450Z,997.79
2019-01-13T00:18:52.439Z,997.76
2019-01-13T00:19:52.430Z,997.79
2019-01-13T00:20:52.416Z,997.83
2019-01-13T00:22:52.395Z,997.79
2019-01-13T00:23:52.399Z,997.79
2019-01-13T00:24:52.371Z,997.82
2019-01-13T00:25:52.359Z,997.73
2019-01-13T00:26:52.348Z,997.80
2019-01-13T00:27:52.337Z,997.80
2019-01-13T00:28:52.325Z,997.88
2019-01-13T00:29:52.315Z,997.78
2019-01-13T00:30:52.303Z,997.83
2019-01-13T00:31:52.292Z,997.91
2019-01-13T00:32:52.282Z,997.81
2019-01-13T00:33:52.269Z,997.88
2019-01-13T00:34:52.264Z,997.84
2019-01-13T00:35:52.248Z,997.85
2019-01-13T00:36:52.236Z,997.95
2019-01-13T00:38:52.213Z,997.88
2019-01-13T00:39:52.204Z,997.93
2019-01-13T00:40:52.192Z,997.87
2019-01-13T00:41:52.181Z,997.92
2019-01-13T00:42:52.168Z,997.88
2019-01-13T00:43:52.167Z,997.85
2019-01-13T00:44:52.145Z,997.94
2019-01-13T00:45:52.151Z,997.91
2019-01-13T00:46:52.128Z,997.98
2019-01-13T00:47:52.132Z,997.90
2019-01-13T00:48:52.106Z,997.93
2019-01-13T00:49:52.120Z,997.96
2019-01-13T00:50:52.078Z,998.00
2019-01-13T00:52:52.056Z,997.97
2019-01-13T00:54:52.041Z,998.02
2019-01-13T00:55:52.022Z,997.94
2019-01-13T00:56:52.011Z,997.94
2019-01-13T00:57:52.049Z,998.00
2019-01-13T00:58:51.986Z,997.93
2019-01-13T00:59:51.977Z,997.97
2019-01-13T01:00:51.965Z,997.97
2019-01-13T01:01:52.008Z,997.90
2019-01-13T01:02:51.942Z,997.95
2019-01-13T01:03:51.990Z,997.87
2019-01-13T01:04:51.921Z,997.84
2019-01-13T01:06:51.897Z,997.81
2019-01-13T01:07:51.896Z,997.81
2019-01-13T01:08:51.880Z,997.80
2019-01-13T01:09:51.920Z,997.84
2019-01-13T01:12:51.835Z,997.86
2019-01-13T01:14:51.815Z,997.85
2019-01-13T01:15:51.798Z,997.84
2019-01-13T01:16:51.786Z,997.84
2019-01-13T01:17:51.805Z,997.88
2019-01-13T01:18:51.787Z,997.92
2019-01-13T01:19:51.815Z,997.85
2019-01-13T01:20:51.785Z,997.90
2019-01-13T01:21:51.832Z,997.86
2019-01-13T01:22:51.727Z,997.86
2019-01-13T01:23:51.728Z,997.89
2019-01-13T01:25:51.740Z,997.90
2019-01-13T01:26:51.673Z,997.91
2019-01-13T01:28:51.651Z,997.91
2019-01-13T01:29:51.638Z,997.90
2019-01-13T01:30:51.630Z,997.96
2019-01-13T01:31:51.616Z,997.97
2019-01-13T01:32:51.607Z,997.89
2019-01-13T01:34:51.585Z,997.92
2019-01-13T01:35:51.574Z,997.91
2019-01-13T01:36:51.567Z,997.94
2019-01-13T01:37:51.552Z,997.97
2019-01-13T01:38:51.538Z,997.93
2019-01-13T01:44:51.471Z,998.01
2019-01-13T01:45:51.459Z,998.03
2019-01-13T01:46:51.448Z,998.06
2019-01-13T01:47:51.444Z,998.17
2019-01-13T01:50:51.407Z,998.06
2019-01-13T01:51:51.393Z,998.10
2019-01-13T01:53:51.370Z,998.11
2019-01-13T01:55:51.352Z,998.13
2019-01-13T01:56:51.336Z,998.09
2019-01-13T01:58:51.312Z,998.07
2019-01-13T02:00:51.293Z,998.21
2019-01-13T02:01:51.280Z,998.09
2019-01-13T02:02:51.272Z,998.09
2019-01-13T02:04:51.250Z,998.10
2019-01-13T02:10:51.191Z,998.04
2019-01-13T02:11:51.174Z,998.12
2019-01-13T02:12:51.156Z,998.16
2019-01-13T02:13:51.144Z,998.13
2019-01-13T02:15:51.122Z,998.18
2019-01-13T02:16:51.116Z,998.10
2019-01-13T02:18:51.087Z,998.12
2019-01-13T02:19:51.077Z,998.11
2019-01-13T02:20:51.065Z,998.03
2019-01-13T02:21:51.055Z,998.07
2019-01-13T02:22:51.042Z,998.14
2019-01-13T02:24:51.025Z,998.17
2019-01-13T02:25:51.008Z,998.20
2019-01-13T02:27:50.992Z,998.18
2019-01-13T02:28:50.975Z,998.18
2019-01-13T02:29:50.963Z,998.21
2019-01-13T02:30:50.977Z,998.17
2019-01-13T02:31:50.948Z,998.16
2019-01-13T02:34:50.907Z,998.13
2019-01-13T02:36:50.888Z,998.11
2019-01-13T02:38:50.870Z,998.09
2019-01-13T02:39:50.850Z,998.13
2019-01-13T02:40:50.845Z,998.09
2019-01-13T02:41:50.830Z,998.10
2019-01-13T02:42:50.818Z,998.03
2019-01-13T02:43:50.812Z,998.04
2019-01-13T02:46:50.773Z,997.98
2019-01-13T02:47:50.766Z,998.00
2019-01-13T02:49:50.748Z,998.02
2019-01-13T02:50:50.728Z,998.00
2019-01-13T02:51:50.717Z,997.96
2019-01-13T02:52:50.710Z,998.03
2019-01-13T02:53:50.706Z,997.99
2019-01-13T02:54:50.681Z,998.01
2019-01-13T02:56:50.660Z,998.09
2019-01-13T02:57:50.651Z,998.02
2019-01-13T03:00:57.050Z,998.02
2019-01-13T03:01:51.622Z,998.05
2019-01-13T03:02:50.597Z,997.98
2019-01-13T03:03:50.580Z,998.05
2019-01-13T03:05:50.562Z,998.02
2019-01-13T03:06:50.555Z,997.97
2019-01-13T03:07:50.534Z,998.01
2019-01-13T03:08:50.524Z,998.03
2019-01-13T03:11:50.498Z,997.92
2019-01-13T03:12:50.479Z,997.93
2019-01-13T03:13:50.468Z,997.92
2019-01-13T03:14:50.464Z,997.97
2019-01-13T03:15:50.445Z,997.98
2019-01-13T03:17:50.425Z,997.98
2019-01-13T03:18:50.413Z,998.02
2019-01-13T03:19:50.401Z,998.01
2019-01-13T03:22:50.367Z,997.97
2019-01-13T03:24:50.351Z,997.89
2019-01-13T03:26:50.327Z,997.88
2019-01-13T03:28:50.302Z,997.89
2019-01-13T03:29:50.291Z,997.84
2019-01-13T03:31:50.275Z,997.85
2019-01-13T03:32:50.272Z,997.87
2019-01-13T03:36:50.212Z,997.89
2019-01-13T03:37:50.200Z,997.89
2019-01-13T03:40:50.170Z,997.92
2019-01-13T03:42:50.145Z,997.92
2019-01-13T03:43:50.131Z,997.90
2019-01-13T03:44:50.121Z,997.91
2019-01-13T03:49:50.064Z,997.85
2019-01-13T03:52:53.126Z,997.79
2019-01-13T03:54:50.009Z,997.70
2019-01-13T03:55:50.004Z,997.77
2019-01-13T03:56:49.988Z,997.75
2019-01-13T03:58:49.962Z,997.74
2019-01-13T03:59:49.951Z,997.78
2019-01-13T04:00:49.946Z,997.76
2019-01-13T04:02:49.923Z,997.75
2019-01-13T04:03:49.950Z,997.76
2019-01-13T04:04:49.897Z,997.67
2019-01-13T04:05:49.883Z,997.78
2019-01-13T04:06:49.872Z,997.73
2019-01-13T04:08:49.875Z,997.73
2019-01-13T04:09:49.840Z,997.70
2019-01-13T04:10:49.828Z,997.66
2019-01-13T04:12:49.810Z,997.67
2019-01-13T04:13:49.794Z,997.68
2019-01-13T04:14:49.787Z,997.73
2019-01-13T04:15:49.778Z,997.70
2019-01-13T04:16:49.759Z,997.68
2019-01-13T04:18:49.736Z,997.72
2019-01-13T04:20:49.719Z,997.63
2019-01-13T04:21:49.706Z,997.59
2019-01-13T04:22:49.690Z,997.62
2019-01-13T04:23:49.684Z,997.50
2019-01-13T04:24:49.673Z,997.57
2019-01-13T04:25:49.662Z,997.54
2019-01-13T04:26:49.648Z,997.52
2019-01-13T04:29:49.617Z,997.50
2019-01-13T04:31:49.592Z,997.59
2019-01-13T04:32:49.578Z,997.54
2019-01-13T04:33:49.570Z,997.56
2019-01-13T04:34:49.562Z,997.58
2019-01-13T04:35:49.593Z,997.47
2019-01-13T04:36:49.538Z,997.48
2019-01-13T04:37:49.533Z,997.43
2019-01-13T04:39:49.498Z,997.34
2019-01-13T04:40:49.554Z,997.40
2019-01-13T04:41:49.480Z,997.39
2019-01-13T04:42:49.464Z,997.38
2019-01-13T04:44:49.441Z,997.34
2019-01-13T04:45:49.432Z,997.32
2019-01-13T04:46:49.421Z,997.26
2019-01-13T04:47:49.408Z,997.31
2019-01-13T04:49:49.388Z,997.34
2019-01-13T04:50:49.374Z,997.35
2019-01-13T04:51:49.362Z,997.37
2019-01-13T04:52:49.367Z,997.40
2019-01-13T04:53:49.343Z,997.44
2019-01-13T04:54:49.330Z,997.39
2019-01-13T04:56:49.315Z,997.39
2019-01-13T04:57:49.297Z,997.36
2019-01-13T04:58:49.299Z,997.35
2019-01-13T04:59:49.280Z,997.34
2019-01-13T05:01:49.253Z,997.36
2019-01-13T05:02:49.241Z,997.34
2019-01-13T05:03:49.231Z,997.40
2019-01-13T05:04:49.219Z,997.31
2019-01-13T05:05:49.205Z,997.27
2019-01-13T05:07:49.187Z,997.27
2019-01-13T05:08:49.177Z,997.33
2019-01-13T05:09:49.159Z,997.31
2019-01-13T05:10:49.148Z,997.31
2019-01-13T05:11:49.139Z,997.30
2019-01-13T05:12:49.128Z,997.32
2019-01-13T05:14:49.103Z,997.33
2019-01-13T05:15:49.093Z,997.37
2019-01-13T05:16:49.108Z,997.33
2019-01-13T05:17:49.069Z,997.34
2019-01-13T05:18:49.060Z,997.27
2019-01-13T05:20:49.041Z,997.31
2019-01-13T05:21:49.023Z,997.36
2019-01-13T05:22:49.015Z,997.34
2019-01-13T05:23:49.007Z,997.29
2019-01-13T05:24:48.992Z,997.28
2019-01-13T05:26:48.971Z,997.34
2019-01-13T05:27:48.965Z,997.31
2019-01-13T05:28:48.948Z,997.32
2019-01-13T05:30:48.930Z,997.20
2019-01-13T05:31:48.913Z,997.24
2019-01-13T05:32:48.904Z,997.21
2019-01-13T05:33:48.889Z,997.25
2019-01-13T05:34:48.879Z,997.21
2019-01-13T05:35:48.866Z,997.26
2019-01-13T05:36:48.863Z,997.30
2019-01-13T05:37:48.844Z,997.28
2019-01-13T05:38:48.836Z,997.20
2019-01-13T05:39:48.822Z,997.26
2019-01-13T05:40:48.814Z,997.26
2019-01-13T05:41:48.797Z,997.29
2019-01-13T05:43:48.777Z,997.22
2019-01-13T05:44:48.766Z,997.23
2019-01-13T05:45:48.756Z,997.14
2019-01-13T05:46:48.744Z,997.18
2019-01-13T05:47:48.732Z,997.09
2019-01-13T05:48:48.731Z,997.10
2019-01-13T05:49:48.710Z,997.14
2019-01-13T05:50:48.700Z,997.12
2019-01-13T05:53:48.662Z,997.04
2019-01-13T05:54:48.650Z,997.04
2019-01-13T05:55:48.641Z,997.00
2019-01-13T05:58:48.606Z,996.94
2019-01-13T05:59:48.595Z,996.93
2019-01-13T06:00:48.586Z,996.91
2019-01-13T06:01:49.329Z,996.88
2019-01-13T06:02:48.561Z,996.84
2019-01-13T06:04:48.540Z,996.87
2019-01-13T06:05:48.529Z,996.80
2019-01-13T06:07:48.505Z,996.78
2019-01-13T06:08:48.544Z,996.78
2019-01-13T06:09:48.487Z,996.80
2019-01-13T06:10:48.471Z,996.72
2019-01-13T06:11:48.464Z,996.74
2019-01-13T06:12:48.453Z,996.70
2019-01-13T06:14:48.430Z,996.79
2019-01-13T06:16:48.404Z,996.75
2019-01-13T06:19:48.370Z,996.79
2019-01-13T06:20:48.358Z,996.71
2019-01-13T06:21:48.348Z,996.67
2019-01-13T06:23:48.325Z,996.68
2019-01-13T06:24:48.316Z,996.68
2019-01-13T06:25:48.304Z,996.66
2019-01-13T06:26:48.298Z,996.66
2019-01-13T06:27:48.282Z,996.62
2019-01-13T06:29:48.257Z,996.64
2019-01-13T06:30:48.248Z,996.63
2019-01-13T06:31:48.236Z,996.68
2019-01-13T06:32:48.282Z,996.65
2019-01-13T06:33:48.217Z,996.58
2019-01-13T06:34:48.210Z,996.61
2019-01-13T06:35:48.192Z,996.66
2019-01-13T06:36:48.180Z,996.64
2019-01-13T06:37:48.175Z,996.66
2019-01-13T06:38:48.157Z,996.69
2019-01-13T06:39:48.148Z,996.63
2019-01-13T06:40:48.140Z,996.63
2019-01-13T06:41:48.122Z,996.67
2019-01-13T06:42:48.117Z,996.70
2019-01-13T06:43:48.103Z,996.66
2019-01-13T06:44:48.093Z,996.62
2019-01-13T06:45:48.078Z,996.68
2019-01-13T06:46:48.066Z,996.62
2019-01-13T06:47:48.058Z,996.62
2019-01-13T06:48:48.051Z,996.72
2019-01-13T06:49:48.041Z,996.63
2019-01-13T06:50:48.023Z,996.63
2019-01-13T06:51:48.009Z,996.68
2019-01-13T06:52:47.999Z,996.68
2019-01-13T06:53:48.003Z,996.62
2019-01-13T06:54:47.975Z,996.69
2019-01-13T06:55:47.964Z,996.75
2019-01-13T06:56:47.954Z,996.74
2019-01-13T06:57:47.956Z,996.73
2019-01-13T06:58:47.930Z,996.74
2019-01-13T06:59:47.926Z,996.79
2019-01-13T07:00:47.921Z,996.70
2019-01-13T07:01:47.926Z,996.82
2019-01-13T07:02:47.927Z,996.73
2019-01-13T07:03:47.882Z,996.72
2019-01-13T07:04:47.872Z,996.68
2019-01-13T07:05:47.881Z,996.68
2019-01-13T07:06:47.876Z,996.68
2019-01-13T07:07:47.882Z,996.57
2019-01-13T07:08:47.818Z,996.59
2019-01-13T07:09:47.815Z,996.52
2019-01-13T07:10:47.795Z,996.54
2019-01-13T07:11:47.786Z,996.44
2019-01-13T07:12:47.779Z,996.49
2019-01-13T07:13:47.760Z,996.50
2019-01-13T07:14:47.749Z,996.51
2019-01-13T07:15:47.741Z,996.44
2019-01-13T07:16:47.730Z,996.48
2019-01-13T07:17:47.723Z,996.52
2019-01-13T07:18:47.705Z,996.53
2019-01-13T07:19:47.693Z,996.47
2019-01-13T07:20:47.690Z,996.52
2019-01-13T07:21:47.671Z,996.39
2019-01-13T07:22:47.661Z,996.35
2019-01-13T07:23:47.650Z,996.32
2019-01-13T07:24:47.641Z,996.37
2019-01-13T07:25:47.628Z,996.33
2019-01-13T07:26:47.618Z,996.35
2019-01-13T07:27:47.602Z,996.30
2019-01-13T07:28:47.595Z,996.20
2019-01-13T07:29:47.582Z,996.21
2019-01-13T07:30:47.574Z,996.19
2019-01-13T07:31:47.565Z,996.25
2019-01-13T07:32:47.547Z,996.20
2019-01-13T07:33:47.541Z,996.16
2019-01-13T07:34:47.527Z,996.18
2019-01-13T07:35:47.513Z,996.20
2019-01-13T07:36:47.502Z,996.12
2019-01-13T07:37:47.499Z,996.14
2019-01-13T07:38:47.480Z,996.16
2019-01-13T07:39:47.469Z,996.13
2019-01-13T07:40:47.460Z,996.09
2019-01-13T07:41:47.452Z,996.08
2019-01-13T07:42:47.444Z,996.12
2019-01-13T07:43:47.424Z,996.05
2019-01-13T07:44:47.415Z,996.03
2019-01-13T07:45:47.404Z,996.06
2019-01-13T07:46:47.391Z,996.05
2019-01-13T07:47:47.382Z,996.02
2019-01-13T07:48:47.370Z,996.01
2019-01-13T07:49:47.363Z,995.98
2019-01-13T07:50:47.352Z,995.93
2019-01-13T07:51:47.340Z,995.86
2019-01-13T07:52:47.325Z,995.87
2019-01-13T07:53:47.317Z,995.89
2019-01-13T07:54:47.303Z,995.87
2019-01-13T07:55:47.297Z,995.91
2019-01-13T07:56:47.282Z,995.79
2019-01-13T07:57:47.272Z,995.90
2019-01-13T07:58:47.268Z,995.93
2019-01-13T07:59:47.248Z,995.83
2019-01-13T08:00:47.236Z,995.90
2019-01-13T08:01:47.232Z,995.89
2019-01-13T08:02:47.213Z,995.83
2019-01-13T08:03:47.202Z,995.80
2019-01-13T08:04:47.195Z,995.83
2019-01-13T08:05:47.181Z,995.77
2019-01-13T08:06:47.172Z,995.79
2019-01-13T08:07:47.159Z,995.75
2019-01-13T08:08:47.149Z,995.77
2019-01-13T08:09:47.143Z,995.81
2019-01-13T08:10:47.128Z,995.80
2019-01-13T08:11:47.118Z,995.73
2019-01-13T08:12:47.107Z,995.80
2019-01-13T08:13:47.099Z,995.76
2019-01-13T08:14:47.083Z,995.78
2019-01-13T08:15:47.077Z,995.69
2019-01-13T08:16:47.061Z,995.68
2019-01-13T08:17:47.049Z,995.72
2019-01-13T08:18:47.039Z,995.63
2019-01-13T08:19:47.030Z,995.66
2019-01-13T08:20:47.017Z,995.63
2019-01-13T08:21:47.006Z,995.65
2019-01-13T08:22:46.995Z,995.59
2019-01-13T08:23:46.989Z,995.64
2019-01-13T08:24:46.973Z,995.53
2019-01-13T08:25:46.960Z,995.53
2019-01-13T08:26:46.953Z,995.58
2019-01-13T08:27:46.939Z,995.58
2019-01-13T08:28:46.932Z,995.49
2019-01-13T08:29:46.922Z,995.52
2019-01-13T08:30:46.965Z,995.49
2019-01-13T08:31:46.894Z,995.49
2019-01-13T08:32:46.884Z,995.41
2019-01-13T08:33:46.871Z,995.38
2019-01-13T08:34:46.866Z,995.43
2019-01-13T08:35:46.854Z,995.35
2019-01-13T08:36:46.838Z,995.36
2019-01-13T08:37:46.832Z,995.36
2019-01-13T08:38:46.815Z,995.31
2019-01-13T08:39:46.805Z,995.27
2019-01-13T08:40:46.792Z,995.36
2019-01-13T08:41:46.785Z,995.36
2019-01-13T08:42:46.777Z,995.33
2019-01-13T08:43:46.759Z,995.24
2019-01-13T08:44:46.749Z,995.28
2019-01-13T08:45:50.346Z,995.31
2019-01-13T08:46:46.739Z,995.24
2019-01-13T08:47:46.719Z,995.28
2019-01-13T08:48:46.705Z,995.22
2019-01-13T08:49:46.694Z,995.31
2019-01-13T08:50:46.685Z,995.25
2019-01-13T08:51:46.674Z,995.17
2019-01-13T08:52:46.674Z,995.15
2019-01-13T08:53:46.654Z,995.19
2019-01-13T08:54:46.641Z,995.11
2019-01-13T08:55:46.632Z,995.09
2019-01-13T08:56:46.621Z,995.09
2019-01-13T08:57:46.608Z,995.00
2019-01-13T08:58:46.597Z,994.96
2019-01-13T08:59:46.588Z,994.91
2019-01-13T09:00:46.577Z,994.91
2019-01-13T09:01:46.573Z,994.92
2019-01-13T09:02:46.555Z,994.89
2019-01-13T09:03:46.543Z,994.81
2019-01-13T09:04:46.533Z,994.81
2019-01-13T09:05:46.522Z,994.77
2019-01-13T09:06:46.516Z,994.74
2019-01-13T09:07:46.504Z,994.66
2019-01-13T09:08:46.489Z,994.62
2019-01-13T09:09:46.479Z,994.75
2019-01-13T09:10:46.470Z,994.73
2019-01-13T09:11:46.457Z,994.71
2019-01-13T09:12:46.451Z,994.72
2019-01-13T09:13:46.443Z,994.74
2019-01-13T09:14:46.423Z,994.77
2019-01-13T09:15:46.415Z,994.68
2019-01-13T09:16:46.403Z,994.68
2019-01-13T09:17:46.395Z,994.67
2019-01-13T09:18:46.383Z,994.65
2019-01-13T09:19:46.374Z,994.68
2019-01-13T09:20:46.361Z,994.61
2019-01-13T09:21:46.351Z,994.65
2019-01-13T09:22:46.338Z,994.62
2019-01-13T09:23:46.328Z,994.55
2019-01-13T09:24:46.316Z,994.49
2019-01-13T09:25:46.307Z,994.43
2019-01-13T09:26:50.901Z,994.44
2019-01-13T09:27:46.288Z,994.46
2019-01-13T09:28:46.273Z,994.38
2019-01-13T09:29:46.268Z,994.33
2019-01-13T09:30:46.250Z,994.38
2019-01-13T09:31:46.244Z,994.34
2019-01-13T09:32:46.230Z,994.37
2019-01-13T09:33:46.227Z,994.24
2019-01-13T09:34:46.209Z,994.17
2019-01-13T09:35:46.197Z,994.18
2019-01-13T09:36:46.188Z,994.27
2019-01-13T09:37:46.175Z,994.26
2019-01-13T09:38:46.167Z,994.25
2019-01-13T09:39:46.157Z,994.23
2019-01-13T09:40:46.143Z,994.16
2019-01-13T09:41:46.135Z,994.04
2019-01-13T09:42:46.126Z,994.10
2019-01-13T09:43:46.118Z,994.05
2019-01-13T09:44:46.100Z,994.03
2019-01-13T09:45:46.089Z,993.99
2019-01-13T09:46:46.085Z,993.95
2019-01-13T09:47:46.068Z,993.85
2019-01-13T09:48:46.054Z,993.88
2019-01-13T09:49:49.874Z,993.87
2019-01-13T09:50:46.033Z,993.80
2019-01-13T09:51:46.024Z,993.79
2019-01-13T09:52:46.014Z,993.74
2019-01-13T09:53:46.001Z,993.78
2019-01-13T09:54:45.997Z,993.79
2019-01-13T09:55:45.987Z,993.76
2019-01-13T09:56:45.976Z,993.74
2019-01-13T09:57:45.959Z,993.76
2019-01-13T09:58:45.953Z,993.69
2019-01-13T09:59:45.948Z,993.64
2019-01-13T10:00:45.925Z,993.57
2019-01-13T10:01:45.917Z,993.62
2019-01-13T10:02:46.731Z,993.58
2019-01-13T10:03:45.901Z,993.55
2019-01-13T10:04:45.882Z,993.57
2019-01-13T10:05:45.871Z,993.50
2019-01-13T10:06:45.861Z,993.52
2019-01-13T10:07:45.850Z,993.44
2019-01-13T10:08:45.839Z,993.42
2019-01-13T10:09:45.828Z,993.42
2019-01-13T10:10:45.821Z,993.35
2019-01-13T10:11:45.805Z,993.32
2019-01-13T10:12:45.795Z,993.31
2019-01-13T10:13:45.784Z,993.23
2019-01-13T10:14:45.824Z,993.24
2019-01-13T10:15:45.809Z,993.22
2019-01-13T10:16:45.753Z,993.20
2019-01-13T10:17:45.744Z,993.21
2019-01-13T10:18:45.732Z,993.19
2019-01-13T10:19:45.720Z,993.03
2019-01-13T10:20:45.711Z,993.00
2019-01-13T10:21:45.701Z,992.99
2019-01-13T10:22:45.688Z,992.91
2019-01-13T10:23:45.683Z,992.97
2019-01-13T10:24:45.667Z,992.93
2019-01-13T10:25:45.654Z,992.89
2019-01-13T10:26:45.642Z,992.91
2019-01-13T10:27:45.634Z,992.75
2019-01-13T10:28:45.620Z,992.78
2019-01-13T10:29:45.609Z,992.73
2019-01-13T10:30:45.599Z,992.77
2019-01-13T10:31:45.590Z,992.76
2019-01-13T10:32:46.772Z,992.74
2019-01-13T10:33:45.567Z,992.64
2019-01-13T10:34:45.556Z,992.64
2019-01-13T10:35:45.548Z,992.60
2019-01-13T10:36:45.534Z,992.52
2019-01-13T10:37:45.525Z,992.46
2019-01-13T10:38:45.512Z,992.44
2019-01-13T10:39:45.504Z,992.48
2019-01-13T10:40:45.492Z,992.43
2019-01-13T10:41:45.482Z,992.38
2019-01-13T10:42:45.471Z,992.37
2019-01-13T10:43:45.458Z,992.32
2019-01-13T10:44:45.448Z,992.33
2019-01-13T10:45:45.444Z,992.25
2019-01-13T10:46:45.430Z,992.22
2019-01-13T10:47:45.420Z,992.18
2019-01-13T10:48:45.408Z,992.21
2019-01-13T10:49:45.397Z,992.15
2019-01-13T10:50:45.382Z,992.06
2019-01-13T10:51:45.373Z,992.06
2019-01-13T10:52:45.363Z,992.05
2019-01-13T10:53:45.350Z,992.09
2019-01-13T10:54:45.339Z,991.94
2019-01-13T10:55:45.333Z,991.95
2019-01-13T10:56:45.323Z,991.88
2019-01-13T10:57:45.320Z,991.88
2019-01-13T10:58:45.297Z,991.90
2019-01-13T10:59:45.285Z,991.90
2019-01-13T11:00:45.275Z,991.78
2019-01-13T11:01:45.272Z,991.73
2019-01-13T11:02:45.256Z,991.66
2019-01-13T11:03:45.245Z,991.63
2019-01-13T11:04:45.231Z,991.58
2019-01-13T11:05:45.222Z,991.52
2019-01-13T11:06:45.213Z,991.49
2019-01-13T11:07:45.205Z,991.48
2019-01-13T11:08:45.188Z,991.45
2019-01-13T11:09:45.178Z,991.46
2019-01-13T11:10:45.171Z,991.45
2019-01-13T11:11:45.159Z,991.47
2019-01-13T11:12:45.144Z,991.40
2019-01-13T11:13:45.134Z,991.45
2019-01-13T11:14:45.121Z,991.41
2019-01-13T11:15:45.112Z,991.34
2019-01-13T11:16:45.099Z,991.31
2019-01-13T11:17:45.089Z,991.31
2019-01-13T11:18:45.075Z,991.30
2019-01-13T11:19:45.068Z,991.21
2019-01-13T11:20:45.063Z,991.12
2019-01-13T11:21:45.043Z,991.09
2019-01-13T11:22:45.031Z,991.04
2019-01-13T11:23:45.022Z,990.97
2019-01-13T11:24:45.016Z,991.05
2019-01-13T11:25:45.000Z,990.98
2019-01-13T11:26:44.989Z,990.96
2019-01-13T11:27:44.984Z,990.90
2019-01-13T11:28:44.971Z,990.82
2019-01-13T11:29:44.963Z,990.79
2019-01-13T11:30:44.946Z,990.86
2019-01-13T11:31:44.939Z,990.85
2019-01-13T11:32:44.925Z,990.76
2019-01-13T11:33:44.914Z,990.70
2019-01-13T11:34:44.904Z,990.65
2019-01-13T11:35:44.891Z,990.69
2019-01-13T11:36:44.880Z,990.62
2019-01-13T11:37:44.873Z,990.61
2019-01-13T11:38:44.862Z,990.56
2019-01-13T11:39:44.850Z,990.54
2019-01-13T11:40:44.846Z,990.53
2019-01-13T11:41:44.830Z,990.47
2019-01-13T11:42:44.824Z,990.40
2019-01-13T11:43:44.807Z,990.42
2019-01-13T11:44:44.798Z,990.43
2019-01-13T11:45:44.788Z,990.40
2019-01-13T11:46:44.773Z,990.36
2019-01-13T11:47:44.759Z,990.28
2019-01-13T11:48:44.756Z,990.22
2019-01-13T11:49:44.744Z,990.27
2019-01-13T11:50:44.735Z,990.22
2019-01-13T11:51:44.722Z,990.22
2019-01-13T11:52:44.704Z,990.19
2019-01-13T11:53:44.694Z,990.13
2019-01-13T11:54:44.688Z,990.10
2019-01-13T11:55:44.676Z,990.06
2019-01-13T11:56:44.661Z,990.09
2019-01-13T11:57:44.652Z,990.04
2019-01-13T11:58:44.644Z,990.06
2019-01-13T11:59:44.628Z,989.98
2019-01-13T12:00:44.616Z,989.97
2019-01-13T12:01:44.604Z,989.94
2019-01-13T12:02:44.595Z,989.96
2019-01-13T12:03:44.585Z,989.85
2019-01-13T12:04:44.572Z,989.81
2019-01-13T12:05:44.563Z,989.78
2019-01-13T12:06:44.551Z,989.69
2019-01-13T12:07:44.542Z,989.63
2019-01-13T12:08:44.531Z,989.58
2019-01-13T12:09:44.521Z,989.61
2019-01-13T12:10:44.509Z,989.56
2019-01-13T12:11:44.508Z,989.49
2019-01-13T12:12:44.492Z,989.59
2019-01-13T12:13:44.475Z,989.49
2019-01-13T12:14:44.466Z,989.50
2019-01-13T12:15:44.458Z,989.45
2019-01-13T12:16:44.444Z,989.37
2019-01-13T12:17:44.432Z,989.45
2019-01-13T12:18:44.424Z,989.42
2019-01-13T12:19:44.409Z,989.31
2019-01-13T12:20:44.402Z,989.32
2019-01-13T12:21:44.388Z,989.24
2019-01-13T12:22:44.375Z,989.26
2019-01-13T12:23:44.369Z,989.25
2019-01-13T12:24:44.355Z,989.28
2019-01-13T12:25:44.348Z,989.20
2019-01-13T12:26:44.331Z,989.19
2019-01-13T12:27:44.320Z,989.24
2019-01-13T12:28:44.307Z,989.13
2019-01-13T12:29:44.299Z,989.16
2019-01-13T12:30:44.288Z,989.07
2019-01-13T12:31:44.276Z,989.04
2019-01-13T12:32:44.266Z,989.08
2019-01-13T12:33:44.254Z,988.97
2019-01-13T12:34:44.244Z,988.93
2019-01-13T12:35:44.237Z,988.87
2019-01-13T12:36:44.229Z,988.91
2019-01-13T12:37:44.212Z,988.86
2019-01-13T12:38:44.201Z,988.79
2019-01-13T12:39:44.191Z,988.83
2019-01-13T12:40:44.180Z,988.73
2019-01-13T12:41:44.171Z,988.81
2019-01-13T12:42:44.159Z,988.73
2019-01-13T12:43:44.155Z,988.66
2019-01-13T12:44:44.137Z,988.67
2019-01-13T12:45:44.126Z,988.54
2019-01-13T12:46:44.115Z,988.46
2019-01-13T12:47:44.107Z,988.52
2019-01-13T12:48:44.094Z,988.45
2019-01-13T12:49:44.089Z,988.42
2019-01-13T12:50:44.090Z,988.38
2019-01-13T12:51:44.107Z,988.25
2019-01-13T12:52:44.095Z,988.25
2019-01-13T12:53:44.038Z,988.33
2019-01-13T12:54:44.039Z,988.23
2019-01-13T12:55:44.049Z,988.20
2019-01-13T12:56:44.048Z,988.13
2019-01-13T12:57:44.874Z,988.20
2019-01-13T12:58:43.987Z,988.14
2019-01-13T12:59:43.976Z,988.15
2019-01-13T13:00:43.965Z,988.13
2019-01-13T13:01:43.948Z,988.06
2019-01-13T13:02:43.941Z,988.09
2019-01-13T13:03:43.925Z,988.01
2019-01-13T13:04:43.914Z,988.01
2019-01-13T13:05:43.906Z,987.87
2019-01-13T13:06:43.893Z,987.91
2019-01-13T13:07:43.883Z,987.96
2019-01-13T13:08:43.869Z,987.91
2019-01-13T13:09:43.865Z,987.86
2019-01-13T13:10:43.848Z,987.82
2019-01-13T13:11:43.836Z,987.84
2019-01-13T13:12:43.832Z,987.81
2019-01-13T13:13:43.815Z,987.86
2019-01-13T13:14:43.804Z,987.91
2019-01-13T13:15:43.791Z,987.74
2019-01-13T13:16:43.778Z,987.82
2019-01-13T13:17:43.771Z,987.79
2019-01-13T13:18:43.757Z,987.77
2019-01-13T13:19:43.803Z,987.67
2019-01-13T13:20:43.738Z,987.71
2019-01-13T13:21:43.723Z,987.66
2019-01-13T13:22:43.717Z,987.64
2019-01-13T13:23:43.713Z,987.70
2019-01-13T13:24:43.691Z,987.63
2019-01-13T13:25:43.686Z,987.62
2019-01-13T13:26:43.671Z,987.61
2019-01-13T13:27:43.660Z,987.58
2019-01-13T13:28:43.650Z,987.52
2019-01-13T13:29:43.638Z,987.54
2019-01-13T13:30:43.639Z,987.52
2019-01-13T13:31:43.616Z,987.42
2019-01-13T13:32:43.611Z,987.49
2019-01-13T13:33:43.594Z,987.40
2019-01-13T13:34:43.586Z,987.36
2019-01-13T13:35:43.577Z,987.35
2019-01-13T13:36:43.573Z,987.39
2019-01-13T13:37:43.553Z,987.43
2019-01-13T13:38:43.541Z,987.34
2019-01-13T13:39:43.531Z,987.34
2019-01-13T13:40:43.523Z,987.38
2019-01-13T13:41:43.508Z,987.33
2019-01-13T13:42:43.496Z,987.29
2019-01-13T13:43:43.486Z,987.22
2019-01-13T13:44:43.475Z,987.27
2019-01-13T13:45:43.465Z,987.26
2019-01-13T13:46:43.453Z,987.21
2019-01-13T13:47:43.442Z,987.18
2019-01-13T13:48:43.438Z,987.23
2019-01-13T13:49:43.421Z,987.14
2019-01-13T13:50:43.412Z,987.11
2019-01-13T13:51:43.400Z,987.01
2019-01-13T13:52:43.392Z,987.01
2019-01-13T13:53:43.383Z,987.03
2019-01-13T13:54:43.369Z,987.07
2019-01-13T13:55:43.360Z,987.01
2019-01-13T13:56:43.344Z,986.98
2019-01-13T13:57:43.334Z,987.00
2019-01-13T13:58:43.319Z,986.96
2019-01-13T13:59:43.309Z,986.97
2019-01-13T14:00:43.296Z,986.96
2019-01-13T14:01:43.284Z,986.95
2019-01-13T14:02:43.278Z,986.93
2019-01-13T14:03:45.808Z,986.94
2019-01-13T14:04:43.250Z,986.83
2019-01-13T14:05:43.240Z,986.88
2019-01-13T14:06:43.228Z,986.81
2019-01-13T14:07:43.218Z,986.82